• Join FlightAware (Why Join?)
  • Login
  • US Flag 
03:16AM EST


 

Airport Tracker/Info


-or-


 

Live Flight TrackerFlight Track Log ✈ DAL268 ✈ 23-Aug-2013 ✈ KSFO - KJFK

Flight Track Log - Related Links

Times and Time Zones

All times are in EDT time to prevent confusion due to time zone crossing. See the DAL268 flight status page for this flight to view local times or setup timezone preferences in your user account.

Time Position Orientation Groundspeed Altitude Reporting Facility
EDT Latitude Longitude Course Direction KTS MPH feet Rate Location/Type
02:31PM 37.6220 -122.3710 90° East 165 190  Level FlightAware
02:31PM 37.6305 -122.3650 29° Northeast 162 186 700 3,180 Climbing FlightAware ADS-B
02:31PM 37.6325 -122.3630 38° Northeast 165 190 800 1,800 Climbing FlightAware ADS-B
02:31PM 37.6362 -122.3590 41° Northeast 170 196 1,000 1,980 Climbing FlightAware ADS-B
02:31PM 37.6407 -122.3520 51° Northeast 181 208 1,300 1,860 Climbing FlightAware ADS-B
02:31PM 37.6452 -122.3460 47° Northeast 192 221 1,500 1,740 Climbing FlightAware ADS-B
02:32PM 37.6549 -122.3310 51° Northeast 205 236 2,000 1,860 Climbing FlightAware ADS-B
02:32PM 37.6652 -122.3160 49° Northeast 225 259 2,500 2,040 Climbing FlightAware ADS-B
02:32PM 37.6760 -122.2990 51° Northeast 240 276 3,100 1,920 Climbing FlightAware ADS-B
02:32PM 37.6875 -122.2820 49° Northeast 260 299 3,500 2,280 Climbing FlightAware ADS-B
02:33PM 37.7003 -122.2630 50° Northeast 266 306 4,300 3,000 Climbing FlightAware ADS-B
02:33PM 37.7127 -122.2440 50° Northeast 270 311 5,100 3,120 Climbing FlightAware ADS-B
02:33PM 37.7324 -122.2180 46° Northeast 274 315 6,300 3,060 Climbing FlightAware ADS-B
02:33PM 37.7408 -122.2090 40° Northeast 275 316 6,700 2,880 Climbing FlightAware ADS-B
02:34PM 37.7569 -122.1940 36° Northeast 275 316 7,500 3,180 Climbing FlightAware ADS-B
02:34PM 37.7738 -122.1780 37° Northeast 278 320 8,400 2,880 Climbing FlightAware ADS-B
02:34PM 37.7917 -122.1620 35° Northeast 285 328 9,100 2,400 Climbing FlightAware ADS-B
02:34PM 37.8079 -122.1470 36° Northeast 293 337 9,700 2,040 Climbing FlightAware ADS-B
02:35PM 37.8429 -122.1140 37° Northeast 313 360 10,700 1,560 Climbing FlightAware ADS-B
02:35PM 37.8805 -122.0790 36° Northeast 348 400 11,300 1,260 Climbing FlightAware ADS-B
02:36PM 37.9287 -122.0350 36° Northeast 377 434 12,100 1,560 Climbing FlightAware ADS-B
02:37PM 37.9787 -121.9880 37° Northeast 390 449 13,100 1,920 Climbing FlightAware ADS-B
02:37PM 38.0470 -121.9240 36° Northeast 412 474 14,700 2,040 Climbing FlightAware
02:38PM 38.1040 -121.8710 36° Northeast 421 484 16,000 2,040 Climbing FlightAware
02:38PM 38.1520 -121.8260 36° Northeast 431 496 17,000 1,920 Climbing FlightAware
02:39PM 38.2140 -121.7680 36° Northeast 441 507 18,200 1,920 Climbing FlightAware
02:40PM 38.2750 -121.7110 36° Northeast 448 516 19,400 1,860 Climbing FlightAware
02:40PM 38.3350 -121.6540 37° Northeast 456 525 20,500 1,860 Climbing FlightAware
02:41PM 38.3920 -121.6000 37° Northeast 460 529 21,600 1,860 Climbing FlightAware
02:41PM 38.4500 -121.5360 41° Northeast 465 535 22,700 1,620 Climbing FlightAware
02:42PM 38.4920 -121.4700 51° Northeast 471 542 23,500 1,500 Climbing FlightAware
02:43PM 38.5440 -121.3810 53° Northeast 478 550 24,500 1,920 Climbing FlightAware
02:43PM 38.5820 -121.3150 54° Northeast 472 543 25,700 1,500 Climbing FlightAware
02:44PM 38.6340 -121.2260 53° Northeast 487 560 26,200 840 Climbing FlightAware
02:44PM 38.6830 -121.1410 54° Northeast 497 572 26,800 1,260 Climbing FlightAware
02:45PM 38.7280 -121.0630 54° Northeast 497 572 27,700 1,680 Climbing FlightAware
02:46PM 38.7780 -120.9760 54° Northeast 492 566 28,800 1,620 Climbing FlightAware
02:46PM 38.8210 -120.9020 53° Northeast 491 565 29,600 1,500 Climbing FlightAware
02:47PM 38.8680 -120.8200 54° Northeast 490 564 30,500 1,560 Climbing FlightAware
02:47PM 38.9150 -120.7390 53° Northeast 485 558 31,500 1,200 Climbing FlightAware
02:48PM 38.9650 -120.6530 53° Northeast 486 559 32,000 360 Climbing FlightAware
02:48PM 39.0110 -120.5730 53° Northeast 486 559 32,000  Level FlightAware
02:49PM 39.0550 -120.4970 53° Northeast 484 557 32,000 120 Level FlightAware
02:50PM 39.1030 -120.4130 54° Northeast 484 557 32,200 900 Climbing FlightAware
02:50PM 39.1470 -120.3360 54° Northeast 480 552 33,100 1,500 Climbing FlightAware
02:51PM 39.1910 -120.2580 54° Northeast 475 547 33,900 1,260 Climbing FlightAware
02:51PM 39.2410 -120.1700 54° Northeast 477 549 34,600 960 Climbing FlightAware
02:52PM 39.2850 -120.0930 54° Northeast 479 551 35,100 1,020 Climbing FlightAware
02:53PM 39.3330 -120.0090 54° Northeast 477 549 35,800 1,140 Climbing FlightAware
02:53PM 39.3800 -119.9260 54° Northeast 475 547 36,500 900 Climbing FlightAware
02:54PM 39.4220 -119.8510 54° Northeast 476 548 36,900 420 Climbing FlightAware
02:54PM 39.4720 -119.7630 54° Northeast 479 551 37,000 60 Climbing FlightAware
02:55PM 39.5120 -119.6900 55° Northeast 481 554 37,000  Level FlightAware
02:55PM 39.5590 -119.6060 54° Northeast 482 555 37,000  Level FlightAware
02:56PM 39.6060 -119.5220 54° Northeast 482 555 37,000  Level FlightAware
02:57PM 39.6530 -119.4370 54° Northeast 482 555 37,000  Level FlightAware
02:57PM 39.6960 -119.3610 54° Northeast 482 555 37,000  Level FlightAware
02:58PM 39.7450 -119.2720 54° Northeast 483 556 37,000  Level FlightAware
02:58PM 39.7870 -119.1950 55° Northeast 483 556 37,000  Level FlightAware
02:59PM 39.8310 -119.1160 54° Northeast 483 556 37,000  Level FlightAware
03:00PM 39.8800 -119.0260 55° Northeast 482 555 37,000  Level FlightAware
03:00PM 39.9260 -118.9420 54° Northeast 482 555 37,000  Level FlightAware
03:01PM 39.9710 -118.8620 54° Northeast 481 554 37,000  Level FlightAware
03:01PM 40.0100 -118.7900 55° Northeast 482 555 37,000  Level FlightAware
03:02PM 40.0590 -118.7000 55° Northeast 482 555 37,000  Level FlightAware
03:02PM 40.1010 -118.6220 55° Northeast 482 555 37,000  Level FlightAware
03:03PM 40.1410 -118.5190 63° Northeast 475 547 37,000  Level FlightAware
03:04PM 40.1650 -118.4360 69° East 472 543 37,000  Level FlightAware
03:04PM 40.1920 -118.3380 70° East 473 544 37,000  Level FlightAware
03:05PM 40.2140 -118.2550 71° East 474 545 37,000  Level FlightAware
03:05PM 40.2430 -118.1470 71° East 475 547 37,000  Level FlightAware
03:06PM 40.2660 -118.0640 70° East 475 547 37,000  Level FlightAware
03:06PM 40.2930 -117.9660 70° East 475 547 37,000  Level FlightAware
03:07PM 40.3170 -117.8780 70° East 475 547 37,000  Level FlightAware
03:08PM 40.3450 -117.7710 71° East 475 547 37,000  Level FlightAware
03:08PM 40.3740 -117.6680 70° East 475 547 37,000  Level FlightAware
03:09PM 40.3970 -117.5850 70° East 475 547 37,000  Level FlightAware
03:10PM 40.4200 -117.5020 70° East 475 547 37,000  Level FlightAware
03:10PM 40.4430 -117.4190 70° East 475 547 37,000  Level FlightAware
03:11PM 40.4660 -117.3360 70° East 475 547 37,000  Level FlightAware
03:11PM 40.4890 -117.2530 70° East 475 547 37,000  Level FlightAware
03:12PM 40.5120 -117.1700 70° East 475 547 37,000  Level FlightAware
03:13PM 40.5350 -117.0840 71° East 475 547 37,000  Level FlightAware
03:13PM 40.5580 -117.0010 70° East 475 547 37,000  Level FlightAware
03:14PM 40.5800 -116.9230 70° East 475 547 37,000  Level FlightAware
03:14PM 40.6030 -116.8390 70° East 475 547 37,000  Level FlightAware
03:15PM 40.6260 -116.7560 70° East 475 547 37,000  Level FlightAware
03:16PM 40.6550 -116.6500 70° East 475 547 37,000  Level FlightAware
03:17PM 40.7334 -116.3160 73° East 482 555 37,000  Level FlightAware ADS-B
03:17PM 40.7579 -116.2240 71° East 482 555 37,000  Level FlightAware ADS-B
03:18PM 40.7800 -116.1410 71° East 482 555 37,000  Level FlightAware ADS-B
03:18PM 40.8038 -116.0510 71° East 483 556 37,000  Level FlightAware ADS-B
03:19PM 40.8266 -115.9650 71° East 484 557 37,000  Level FlightAware ADS-B
03:19PM 40.8560 -115.8530 71° East 484 557 37,000  Level FlightAware ADS-B
03:20PM 40.8795 -115.7630 71° East 485 558 37,000  Level FlightAware ADS-B
03:22PM 40.9690 -115.4170 71° East 487 560 37,000  Level FlightAware
03:22PM 40.9897 -115.3380 71° East 487 560 37,000  Level FlightAware ADS-B
03:23PM 41.0126 -115.2500 71° East 487 560 37,000  Level FlightAware ADS-B
03:23PM 41.0344 -115.1640 71° East 486 559 37,000  Level FlightAware ADS-B
03:24PM 41.0566 -115.0770 71° East 486 559 37,000  Level FlightAware ADS-B
03:25PM 41.0913 -114.9400 71° East 486 559 37,000  Level FlightAware ADS-B
03:25PM 41.1132 -114.8530 71° East 486 559 37,000  Level FlightAware ADS-B
03:26PM 41.1405 -114.7450 71° East 485 558 37,000  Level FlightAware ADS-B
03:26PM 41.1617 -114.6600 72° East 484 557 37,000  Level FlightAware ADS-B
03:27PM 41.1839 -114.5710 72° East 482 555 37,000  Level FlightAware ADS-B
03:27PM 41.2052 -114.4850 72° East 482 555 37,000  Level FlightAware ADS-B
03:28PM 41.2261 -114.4010 72° East 482 555 37,000  Level FlightAware ADS-B
03:28PM 41.2474 -114.3140 72° East 482 555 37,000  Level FlightAware ADS-B
03:29PM 41.2830 -114.1750 71° East 480 552 37,000  Level FlightAware
03:30PM 41.2916 -114.1340 74° East 481 554 37,000  Level FlightAware ADS-B
03:30PM 41.3124 -114.0490 72° East 478 550 37,000  Level FlightAware ADS-B
03:31PM 41.3328 -113.9650 72° East 477 549 37,000  Level FlightAware ADS-B
03:31PM 41.3496 -113.8950 72° East 477 549 37,000  Level FlightAware ADS-B
03:31PM 41.3622 -113.8340 75° East 472 543 37,000  Level FlightAware ADS-B
03:32PM 41.3751 -113.7490 79° East 468 539 37,000  Level FlightAware ADS-B
03:32PM 41.3870 -113.6580 80° East 466 536 37,000  Level FlightAware ADS-B
03:33PM 41.3977 -113.5720 81° East 465 535 37,000  Level FlightAware ADS-B
03:33PM 41.4086 -113.4860 80° East 465 535 37,000  Level FlightAware ADS-B
03:34PM 41.4193 -113.4010 80° East 466 536 37,000  Level FlightAware ADS-B
03:34PM 41.4300 -113.3130 81° East 467 537 37,000  Level FlightAware
03:35PM 41.4333 -113.2890 80° East 467 537 37,000  Level FlightAware ADS-B
03:35PM 41.4442 -113.2030 80° East 468 539 37,000  Level FlightAware ADS-B
03:36PM 41.4549 -113.1160 81° East 470 541 37,000  Level FlightAware ADS-B
03:36PM 41.4680 -113.0100 81° East 474 545 37,000  Level FlightAware ADS-B
03:37PM 41.4793 -112.9180 81° East 476 548 37,000  Level FlightAware ADS-B
03:37PM 41.4923 -112.8110 81° East 478 550 37,000  Level FlightAware ADS-B
03:38PM 41.5031 -112.7210 81° East 479 551 37,000  Level FlightAware ADS-B
03:38PM 41.5142 -112.6280 81° East 480 552 37,000  Level FlightAware ADS-B
03:39PM 41.5281 -112.5120 81° East 481 554 37,000  Level FlightAware ADS-B
03:40PM 41.5407 -112.3990 81° East 480 552 37,000  Level FlightAware ADS-B
03:40PM 41.5510 -112.2990 82° East 479 551 37,000  Level FlightAware ADS-B
03:41PM 41.5611 -112.2010 82° East 479 551 37,000  Level FlightAware ADS-B
03:41PM 41.5702 -112.1130 82° East 479 551 37,000  Level FlightAware ADS-B
03:42PM 41.5794 -112.0250 82° East 478 550 37,000  Level FlightAware ADS-B
03:43PM 41.5918 -111.9040 82° East 477 549 37,000  Level FlightAware ADS-B
03:43PM 41.6014 -111.8090 82° East 477 549 37,000  Level FlightAware ADS-B
03:44PM 41.6133 -111.6900 82° East 476 548 37,000  Level FlightAware ADS-B
03:44PM 41.6219 -111.6040 82° East 476 548 37,000  Level FlightAware ADS-B
03:45PM 41.6310 -111.5120 82° East 476 548 37,000  Level FlightAware ADS-B
03:45PM 41.6397 -111.4230 83° East 476 548 37,000  Level FlightAware ADS-B
03:46PM 41.6483 -111.3340 83° East 476 548 37,000  Level FlightAware ADS-B
03:46PM 41.6567 -111.2470 83° East 475 547 37,000  Level FlightAware ADS-B
03:47PM 41.6652 -111.1580 83° East 475 547 37,000 360 Level FlightAware ADS-B
03:47PM 41.6737 -111.0690 83° East 471 542 37,400 840 Climbing FlightAware ADS-B
03:48PM 41.6818 -110.9820 83° East 467 537 37,900 540 Climbing FlightAware ADS-B
03:48PM 41.6898 -110.8950 83° East 472 543 38,000 360 Climbing FlightAware ADS-B
03:49PM 41.6979 -110.8070 83° East 474 545 38,300 540 Climbing FlightAware ADS-B
03:49PM 41.7072 -110.7060 83° East 473 544 38,600 540 Climbing FlightAware ADS-B
03:50PM 41.7152 -110.6180 83° East 472 543 38,900 180 Climbing FlightAware ADS-B
03:51PM 41.7333 -110.4172 83° East 465 535 39,000  Climbing Salt Lake Center
03:52PM 41.7467 -110.2561 84° East 458 527 39,000  Level Salt Lake Center
03:53PM 41.7628 -110.0650 83° East 461 531 39,000  Level Salt Lake Center
03:54PM 41.7783 -109.8994 83° East 466 536 39,000  Level Salt Lake Center
03:55PM 41.7925 -109.7306 84° East 473 544 39,000  Level Salt Lake Center
03:56PM 41.8078 -109.5336 84° East 474 545 39,000  Level Salt Lake Center
03:57PM 41.8228 -109.3639 83° East 476 548 39,000  Level Salt Lake Center
03:58PM 41.8383 -109.1631 84° East 481 554 39,000  Level Salt Lake Center
03:59PM 41.8511 -108.9900 84° East 483 556 39,000  Level Salt Lake Center
04:00PM 41.8658 -108.7881 84° East 484 557 39,000  Level Salt Lake Center
04:01PM 41.8778 -108.6161 85° East 483 556 39,000  Level Salt Lake Center
04:03PM 41.8903 -108.4469 84° East 479 551 39,000  Level Salt Lake Center
04:04PM 41.9050 -108.2497 84° East 476 548 39,000  Level Salt Lake Center
04:05PM 41.9156 -108.0800 85° East 476 548 39,000  Level Salt Lake Center
04:06PM 41.9267 -107.8825 86° East 475 547 39,000  Level Salt Lake Center
04:07PM 41.9375 -107.7167 85° East 466 536 39,000  Level Salt Lake Center
04:13PM 42.0040 -106.6360 85° East 470 541 39,000  Level FlightAware
04:13PM 42.0100 -106.5390 85° East 470 541 39,000  Level FlightAware
04:14PM 42.0140 -106.4430 87° East 471 542 39,000  Level FlightAware
04:14PM 42.0200 -106.3380 86° East 473 544 39,000  Level FlightAware
04:15PM 42.0250 -106.2280 86° East 474 545 39,000  Level FlightAware
04:16PM 42.0320 -106.1010 86° East 476 548 39,000  Level FlightAware
04:16PM 42.0360 -106.0060 87° East 476 548 39,000  Level FlightAware
04:17PM 42.0410 -105.9010 86° East 476 548 39,000  Level FlightAware
04:17PM 42.0450 -105.8220 86° East 477 549 39,000  Level FlightAware
04:18PM 42.0510 -105.7060 86° East 475 547 39,000  Level FlightAware
04:19PM 42.0570 -105.5680 87° East 475 547 39,000  Level FlightAware
04:19PM 42.0620 -105.4770 86° East 475 547 39,000  Level FlightAware
04:20PM 42.0670 -105.3380 87° East 478 550 39,000  Level FlightAware
04:21PM 42.0722 -105.2250 86° East 479 551 39,000  Level FlightAware ADS-B
04:21PM 42.0785 -105.1230 85° East 481 554 39,000  Level FlightAware ADS-B
04:22PM 42.0860 -105.0330 84° East 480 552 39,000  Level FlightAware ADS-B
04:22PM 42.0942 -104.9410 83° East 480 552 39,000  Level FlightAware ADS-B
04:23PM 42.1024 -104.8480 83° East 480 552 39,000  Level FlightAware ADS-B
04:23PM 42.1102 -104.7580 83° East 480 552 39,000  Level FlightAware ADS-B
04:24PM 42.1180 -104.6680 83° East 480 552 39,000  Level FlightAware ADS-B
04:24PM 42.1256 -104.5790 83° East 479 551 39,000  Level FlightAware ADS-B
04:25PM 42.1343 -104.4760 83° East 479 551 39,000  Level FlightAware ADS-B
04:25PM 42.1420 -104.3840 84° East 479 551 39,000  Level FlightAware ADS-B
04:26PM 42.1493 -104.2940 84° East 478 550 39,000  Level FlightAware ADS-B
04:26PM 42.1567 -104.2040 84° East 478 550 39,000  Level FlightAware ADS-B
04:27PM 42.1654 -104.0960 84° East 478 550 39,000  Level FlightAware ADS-B
04:28PM 42.1726 -104.0070 84° East 478 550 39,000  Level FlightAware ADS-B
04:28PM 42.1796 -103.9180 84° East 477 549 39,000  Level FlightAware ADS-B
04:29PM 42.1869 -103.8240 84° East 477 549 39,000  Level FlightAware ADS-B
04:29PM 42.1938 -103.7350 84° East 476 548 39,000  Level FlightAware ADS-B
04:30PM 42.2007 -103.6460 84° East 476 548 39,000  Level FlightAware ADS-B
04:30PM 42.2075 -103.5560 84° East 475 547 39,000  Level FlightAware ADS-B
04:31PM 42.2141 -103.4680 84° East 474 545 39,000  Level FlightAware ADS-B
04:31PM 42.2209 -103.3770 84° East 475 547 39,000  Level FlightAware ADS-B
04:32PM 42.2275 -103.2870 84° East 474 545 39,000  Level FlightAware ADS-B
04:32PM 42.2339 -103.1990 84° East 475 547 39,000  Level FlightAware ADS-B
04:33PM 42.2404 -103.1080 84° East 475 547 39,000  Level FlightAware ADS-B
04:33PM 42.2471 -103.0140 84° East 475 547 39,000  Level FlightAware ADS-B
04:34PM 42.2535 -102.9240 84° East 475 547 39,000  Level FlightAware ADS-B
04:34PM 42.2603 -102.8260 85° East 474 545 39,000  Level FlightAware ADS-B
04:35PM 42.2675 -102.7210 85° East 474 545 39,000  Level FlightAware ADS-B
04:35PM 42.2739 -102.6260 85° East 474 545 39,000  Level FlightAware ADS-B
04:36PM 42.2801 -102.5340 85° East 474 545 39,000  Level FlightAware ADS-B
04:36PM 42.2859 -102.4460 85° East 474 545 39,000  Level FlightAware ADS-B
04:37PM 42.2934 -102.3300 85° East 473 544 39,000  Level FlightAware ADS-B
04:38PM 42.2995 -102.2360 85° East 474 545 39,000  Level FlightAware ADS-B
04:38PM 42.3072 -102.1150 85° East 474 545 39,000  Level FlightAware ADS-B
04:40PM 42.3236 -101.8470 85° East 477 549 39,000  Level FlightAware ADS-B
04:41PM 42.3344 -101.6639 85° East 477 549 39,000  Level Minneapolis Center
04:42PM 42.3442 -101.4867 86° East 474 545 39,000  Level Minneapolis Center
04:43PM 42.3536 -101.3078 86° East 476 548 39,000  Level Minneapolis Center
04:44PM 42.3633 -101.1283 86° East 478 550 39,000  Level Minneapolis Center
04:45PM 42.3736 -100.9494 85° East 478 550 39,000  Level Minneapolis Center
04:46PM 42.3842 -100.7342 86° East 477 549 39,000  Level Minneapolis Center
04:47PM 42.3944 -100.5519 86° East 481 554 39,000  Level Minneapolis Center
04:48PM 42.4025 -100.3728 86° East 480 552 39,000  Level Minneapolis Center
04:49PM 42.4108 -100.1928 86° East 479 551 39,000  Level Minneapolis Center
04:50PM 42.4194 -100.0106 86° East 483 556 39,000  Level Minneapolis Center
04:51PM 42.4278 -99.8283 86° East 484 557 39,000  Level Minneapolis Center
04:52PM 42.4353 -99.6472 87° East 481 554 39,000  Level Minneapolis Center
04:53PM 42.4447 -99.4286 87° East 484 557 39,000  Level Minneapolis Center
04:54PM 42.4511 -99.2464 87° East 484 557 39,000  Level Minneapolis Center
04:55PM 42.4586 -99.0633 87° East 485 558 39,000  Level Minneapolis Center
04:56PM 42.4644 -98.8817 87° East 483 556 39,000  Level Minneapolis Center
04:57PM 42.4711 -98.6989 87° East 484 557 39,000  Level Minneapolis Center
05:04PM 42.5240 -97.5340 87° East 484 557 39,000  Level FlightAware
05:04PM 42.5280 -97.4370 87° East 483 556 39,000  Level FlightAware
05:05PM 42.5320 -97.3280 87° East 483 556 39,000  Level FlightAware
05:05PM 42.5360 -97.2260 87° East 483 556 39,000  Level FlightAware
05:06PM 42.5400 -97.1290 87° East 483 556 39,000  Level FlightAware
05:06PM 42.5450 -97.0750 83° East 477 549 39,000  Level FlightAware
05:07PM 42.5680 -96.9980 68° East 465 535 39,000  Level FlightAware
05:07PM 42.6170 -96.9210 49° Northeast 452 520 39,000  Level FlightAware
05:08PM 42.6640 -96.8640 42° Northeast 452 520 39,000  Level FlightAware
05:08PM 42.7190 -96.7950 43° Northeast 452 520 39,000  Level FlightAware
05:09PM 42.7730 -96.7270 43° Northeast 452 520 39,000  Level FlightAware
05:10PM 42.8340 -96.6500 43° Northeast 452 520 39,000  Level FlightAware
05:10PM 42.8880 -96.5800 44° Northeast 452 520 39,000  Level FlightAware
05:11PM 42.9260 -96.5140 52° Northeast 465 535 39,000  Level FlightAware
05:11PM 42.9480 -96.4000 75° East 491 565 39,000  Level FlightAware
05:12PM 42.9470 -96.2990 91° East 494 568 39,000  Level FlightAware
05:13PM 42.9450 -96.1880 91° East 494 568 39,000  Level FlightAware
05:13PM 42.9420 -96.0780 92° East 494 568 39,000  Level FlightAware
05:14PM 42.9390 -95.9720 92° East 494 568 39,000  Level FlightAware
05:14PM 42.9370 -95.8570 91° East 494 568 39,000  Level FlightAware
05:15PM 42.9340 -95.7570 92° East 494 568 39,000  Level FlightAware
05:16PM 42.9310 -95.6360 92° East 493 567 39,000  Level FlightAware
05:16PM 42.9290 -95.5230 91° East 493 567 39,000  Level FlightAware
05:17PM 42.9260 -95.4360 93° East 493 567 39,000  Level FlightAware
05:17PM 42.9230 -95.3200 92° East 493 567 39,000  Level FlightAware
05:18PM 42.9200 -95.2060 92° East 494 568 39,000  Level FlightAware
05:18PM 42.9170 -95.0960 92° East 495 570 39,000  Level FlightAware
05:19PM 42.9130 -94.9900 93° East 495 570 39,000  Level FlightAware
05:20PM 42.9100 -94.8770 92° East 496 571 39,000  Level FlightAware
05:20PM 42.9070 -94.7740 92° East 496 571 39,000  Level FlightAware
05:21PM 42.9030 -94.6660 93° East 497 572 39,000  Level FlightAware
05:21PM 42.8990 -94.5530 93° East 497 572 39,000  Level FlightAware
05:22PM 42.8950 -94.4420 93° East 497 572 39,000  Level FlightAware
05:22PM 42.8910 -94.3360 93° East 497 572 39,000  Level FlightAware
05:23PM 42.8870 -94.2300 93° East 498 573 39,000  Level FlightAware
05:24PM 42.8830 -94.1130 93° East 498 573 39,000  Level FlightAware
05:24PM 42.8800 -94.0130 92° East 499 574 39,000  Level FlightAware
05:25PM 42.8750 -93.8960 93° East 499 574 39,000  Level FlightAware
05:25PM 42.8710 -93.7870 93° East 499 574 39,000  Level FlightAware
05:26PM 42.8670 -93.6840 93° East 498 573 39,000  Level FlightAware
05:27PM 42.8630 -93.5680 93° East 498 573 39,000  Level FlightAware
05:27PM 42.8580 -93.4570 93° East 501 577 39,000  Level FlightAware
05:28PM 42.8530 -93.3430 93° East 503 579 39,000  Level FlightAware
05:28PM 42.8490 -93.2420 93° East 503 579 39,000  Level FlightAware
05:29PM 42.8440 -93.1280 93° East 501 577 39,000  Level FlightAware
05:29PM 42.8390 -93.0160 93° East 499 574 39,000  Level FlightAware
05:30PM 42.8340 -92.9180 94° East 497 572 39,000  Level FlightAware
05:31PM 42.8290 -92.7990 93° East 497 572 39,000  Level FlightAware
05:31PM 42.8240 -92.6890 94° East 496 571 39,000  Level FlightAware
05:32PM 42.8180 -92.5820 94° East 495 570 39,000  Level FlightAware
05:32PM 42.8130 -92.4680 93° East 494 568 39,000  Level FlightAware
05:33PM 42.8080 -92.3710 94° East 494 568 39,000  Level FlightAware
05:34PM 42.8020 -92.2570 94° East 493 567 39,000  Level FlightAware
05:34PM 42.7960 -92.1460 94° East 493 567 39,000  Level FlightAware
05:35PM 42.7910 -92.0440 94° East 488 562 39,000  Level FlightAware
05:35PM 42.7850 -91.9400 94° East 481 554 39,000  Level FlightAware
05:36PM 42.7790 -91.8300 94° East 477 549 39,000  Level FlightAware
05:36PM 42.7730 -91.7240 94° East 476 548 39,000  Level FlightAware
05:37PM 42.7670 -91.6150 94° East 477 549 39,000  Level FlightAware
05:38PM 42.7610 -91.5180 95° East 478 550 39,000  Level FlightAware
05:38PM 42.7550 -91.4140 94° East 479 551 39,000  Level FlightAware
05:39PM 42.7480 -91.3050 95° East 480 552 39,000  Level FlightAware
05:39PM 42.7420 -91.2020 95° East 480 552 39,000  Level FlightAware
05:40PM 42.7350 -91.0900 95° East 479 551 39,000  Level FlightAware
05:41PM 42.7280 -90.9810 95° East 478 550 39,000  Level FlightAware
05:41PM 42.7220 -90.8820 95° East 478 550 39,000  Level FlightAware
05:42PM 42.7160 -90.7890 95° East 478 550 39,000  Level FlightAware
05:42PM 42.7090 -90.6740 95° East 486 559 39,000  Level FlightAware
05:43PM 42.7010 -90.5660 96° East 493 567 39,000  Level FlightAware
05:43PM 42.6940 -90.4530 95° East 497 572 39,000  Level FlightAware
05:44PM 42.6870 -90.3580 96° East 496 571 39,000  Level FlightAware
05:45PM 42.6790 -90.2460 96° East 497 572 39,000  Level FlightAware
05:45PM 42.6710 -90.1340 96° East 499 574 39,000  Level FlightAware
05:46PM 42.6630 -90.0200 95° East 499 574 39,000  Level FlightAware
05:46PM 42.6560 -89.9190 95° East 500 575 39,000  Level FlightAware
05:47PM 42.6470 -89.8010 96° East 498 573 39,000  Level FlightAware
05:48PM 42.6400 -89.7010 95° East 497 572 39,000  Level FlightAware
05:48PM 42.6310 -89.5840 96° East 495 570 39,000  Level FlightAware
05:49PM 42.6240 -89.4920 96° East 494 568 39,000  Level FlightAware
05:49PM 42.6150 -89.3720 96° East 493 567 39,000  Level FlightAware
05:50PM 42.6070 -89.2730 96° East 492 566 39,000  Level FlightAware
05:50PM 42.6030 -89.1620 93° East 488 562 39,000  Level FlightAware
05:51PM 42.6000 -89.0520 92° East 487 560 39,000  Level FlightAware
05:52PM 42.6000 -88.9470 90° East 487 560 39,000  Level FlightAware
05:52PM 42.6000 -88.8490 90° East 489 563 39,000  Level FlightAware
05:53PM 42.6000 -88.7340 90° East 490 564 39,000  Level FlightAware
05:53PM 42.6000 -88.6290 90° East 491 565 39,000  Level FlightAware
05:54PM 42.6000 -88.5210 90° East 493 567 39,000  Level FlightAware
05:55PM 42.6000 -88.4080 90° East 495 570 39,000  Level FlightAware
05:55PM 42.6000 -88.2950 90° East 497 572 39,000  Level FlightAware
05:56PM 42.5990 -88.1940 91° East 497 572 39,000  Level FlightAware
05:56PM 42.5990 -88.0850 90° East 497 572 39,000  Level FlightAware
05:57PM 42.5980 -87.9840 91° East 497 572 39,000  Level FlightAware
05:57PM 42.5970 -87.8750 91° East 497 572 39,000  Level FlightAware
05:58PM 42.5960 -87.7790 91° East 495 570 39,000  Level FlightAware
05:59PM 42.5950 -87.6480 91° East 493 567 39,000  Level FlightAware
05:59PM 42.5940 -87.5450 91° East 483 556 39,000  Level FlightAware
06:00PM 42.5920 -87.4330 91° East 474 545 39,000  Level FlightAware
06:00PM 42.5910 -87.3440 91° East 471 542 39,000  Level FlightAware
06:01PM 42.5900 -87.2420 91° East 468 539 39,000  Level FlightAware
06:02PM 42.5890 -87.1280 91° East 465 535 39,000  Level FlightAware
06:02PM 42.5870 -87.0330 92° East 468 539 39,000  Level FlightAware
06:03PM 42.5850 -86.9300 91° East 469 540 39,000  Level FlightAware
06:03PM 42.5840 -86.8270 91° East 469 540 39,000  Level FlightAware
06:04PM 42.5820 -86.7210 91° East 470 541 39,000  Level FlightAware
06:04PM 42.5800 -86.6170 91° East 471 542 39,000  Level FlightAware
06:05PM 42.5780 -86.5220 92° East 470 541 39,000  Level FlightAware
06:06PM 42.5760 -86.4100 91° East 469 540 39,000  Level FlightAware
06:06PM 42.5730 -86.3050 92° East 467 537 39,000  Level FlightAware
06:07PM 42.5710 -86.2160 92° East 466 536 39,000  Level FlightAware
06:07PM 42.5690 -86.0990 91° East 463 533 39,000  Level FlightAware
06:08PM 42.5660 -86.0020 92° East 461 531 39,000  Level FlightAware
06:09PM 42.5640 -85.8970 91° East 459 528 39,000  Level FlightAware
06:09PM 42.5610 -85.8130 93° East 458 527 39,000  Level FlightAware
06:10PM 42.5580 -85.6960 92° East 456 525 39,000  Level FlightAware
06:10PM 42.5550 -85.5830 92° East 455 524 39,000  Level FlightAware
06:11PM 42.5520 -85.4840 92° East 454 522 39,000  Level FlightAware
06:12PM 42.5490 -85.3840 92° East 454 522 39,000  Level FlightAware
06:12PM 42.5460 -85.2820 92° East 454 522 39,000  Level FlightAware
06:13PM 42.5430 -85.1780 92° East 454 522 39,000  Level FlightAware
06:13PM 42.5400 -85.0890 93° East 461 531 39,000  Level FlightAware
06:14PM 42.5370 -84.9890 92° East 469 540 39,000  Level FlightAware
06:14PM 42.5340 -84.8880 92° East 475 547 39,000  Level FlightAware
06:15PM 42.5300 -84.7770 93° East 477 549 39,000  Level FlightAware
06:16PM 42.5260 -84.6790 93° East 479 551 39,000  Level FlightAware
06:16PM 42.5220 -84.5670 93° East 479 551 39,000  Level FlightAware
06:17PM 42.5180 -84.4590 93° East 480 552 39,000  Level FlightAware
06:17PM 42.5140 -84.3590 93° East 481 554 39,000  Level FlightAware
06:18PM 42.5100 -84.2500 93° East 483 556 39,000  Level FlightAware
06:19PM 42.5050 -84.1390 93° East 484 557 39,000  Level FlightAware
06:19PM 42.5010 -84.0320 93° East 484 557 39,000  Level FlightAware
06:20PM 42.4970 -83.9340 93° East 485 558 39,000  Level FlightAware
06:20PM 42.4920 -83.8250 94° East 484 557 39,000  Level FlightAware
06:21PM 42.4870 -83.7200 94° East 482 555 39,000  Level FlightAware
06:21PM 42.4830 -83.6220 93° East 481 554 39,000  Level FlightAware
06:22PM 42.4780 -83.5130 94° East 480 552 39,000  Level FlightAware
06:23PM 42.4730 -83.4040 94° East 480 552 39,000  Level FlightAware
06:23PM 42.4680 -83.3030 94° East 479 551 39,000  Level FlightAware
06:24PM 42.4630 -83.1980 94° East 479 551 39,000  Level FlightAware
06:24PM 42.4580 -83.1020 94° East 478 550 39,000  Level FlightAware
06:25PM 42.4530 -82.9950 94° East 479 551 39,000  Level FlightAware
06:26PM 42.4470 -82.8880 94° East 479 551 39,000  Level FlightAware
06:26PM 42.4410 -82.7730 94° East 480 552 39,000  Level FlightAware
06:27PM 42.4350 -82.6600 94° East 481 554 39,000  Level FlightAware
06:27PM 42.4290 -82.5440 94° East 483 556 39,000  Level FlightAware
06:28PM 42.4240 -82.4480 94° East 484 557 39,000  Level FlightAware
06:29PM 42.4180 -82.3440 94° East 485 558 39,000  Level FlightAware
06:29PM 42.4120 -82.2450 95° East 487 560 39,000  Level FlightAware
06:30PM 42.4080 -82.1750 94° East 488 562 39,000  Level FlightAware
06:30PM 42.4010 -82.0560 95° East 488 562 39,000  Level FlightAware
06:31PM 42.3960 -81.9700 94° East 489 563 39,000  Level FlightAware
06:31PM 42.3870 -81.8320 95° East 489 563 39,000  Level FlightAware
06:32PM 42.3810 -81.7260 94° East 489 563 39,000  Level FlightAware
06:33PM 42.3750 -81.6240 95° East 490 564 39,000  Level FlightAware
06:33PM 42.3660 -81.4930 95° East 490 564 39,000  Level FlightAware
06:34PM 42.3600 -81.3960 95° East 491 565 39,000  Level FlightAware
06:34PM 42.3530 -81.2850 95° East 492 566 39,000  Level FlightAware
06:35PM 42.3440 -81.1580 95° East 493 567 39,000  Level FlightAware
06:36PM 42.3390 -81.0850 95° East 493 567 39,000  Level FlightAware
06:36PM 42.3320 -80.9730 95° East 492 566 39,000  Level FlightAware
06:37PM 42.3240 -80.8640 96° East 491 565 39,000  Level FlightAware
06:37PM 42.3160 -80.7550 96° East 491 565 39,000  Level FlightAware
06:38PM 42.3070 -80.6310 96° East 492 566 39,000  Level FlightAware
06:39PM 42.2950 -80.4620 95° East 492 566 39,000  Level FlightAware
06:39PM 42.2880 -80.3640 95° East 492 566 39,000  Level FlightAware
06:40PM 42.2800 -80.2570 96° East 492 566 39,000  Level FlightAware
06:41PM 42.2710 -80.1450 96° East 492 566 39,000  Level FlightAware
06:41PM 42.2630 -80.0410 96° East 492 566 39,000  Level FlightAware
06:42PM 42.2540 -79.9240 96° East 493 567 39,000  Level FlightAware
06:42PM 42.2460 -79.8230 96° East 494 568 39,000  Level FlightAware
06:43PM 42.2380 -79.7220 96° East 495 570 39,000  Level FlightAware
06:44PM 42.2290 -79.6030 96° East 497 572 39,000  Level FlightAware
06:44PM 42.2200 -79.4960 96° East 499 574 39,000  Level FlightAware
06:45PM 42.2110 -79.3920 97° East 499 574 39,000  Level FlightAware
06:45PM 42.2020 -79.2790 96° East 499 574 39,000  Level FlightAware
06:46PM 42.1930 -79.1710 96° East 499 574 39,000  Level FlightAware
06:47PM 42.1760 -79.0630 102° East 503 579 39,000  Level FlightAware
06:47PM 42.1520 -78.9660 108° East 505 581 39,000  Level FlightAware
06:48PM 42.1230 -78.8580 110° East 504 580 39,000  Level FlightAware
06:48PM 42.0940 -78.7450 109° East 504 580 39,000  Level FlightAware
06:49PM 42.0690 -78.6470 109° East 505 581 39,000  Level FlightAware
06:49PM 42.0430 -78.5440 109° East 504 580 39,000  Level FlightAware
06:50PM 42.0120 -78.4210 109° East 505 581 39,000  Level FlightAware
06:51PM 41.9900 -78.3360 109° East 505 581 39,000  Level FlightAware
06:51PM 41.9610 -78.2230 109° East 505 581 39,000  Level FlightAware
06:52PM 41.9340 -78.1160 109° East 505 581 39,000  Level FlightAware
06:52PM 41.9090 -78.0200 109° East 506 582 39,000  Level FlightAware
06:53PM 41.8810 -77.9150 110° East 506 582 39,000  Level FlightAware
06:54PM 41.8530 -77.8060 109° East 505 581 39,000  Level FlightAware
06:54PM 41.8250 -77.7000 109° East 504 580 39,000  Level FlightAware
06:55PM 41.8010 -77.6090 109° East 505 581 39,000  Level FlightAware
06:55PM 41.7720 -77.5010 110° East 505 581 39,000  Level FlightAware
06:56PM 41.7430 -77.3910 109° East 505 581 39,000  Level FlightAware
06:56PM 41.7160 -77.2900 110° East 505 581 39,000  Level FlightAware
06:57PM 41.6880 -77.1860 110° East 504 580 39,000  Level FlightAware
06:58PM 41.6650 -77.1000 110° East 505 581 39,000  Level FlightAware
06:58PM 41.6308 -76.9740 110° East 505 581 39,000  Level FlightAware ADS-B
06:59PM 41.6028 -76.8712 110° East 506 582 39,000  Level FlightAware ADS-B
06:59PM 41.5782 -76.7813 110° East 506 582 39,000  Level FlightAware ADS-B
07:00PM 41.5560 -76.6990 110° East 505 581 39,000  Level FlightAware
07:00PM 41.5436 -76.6553 111° Southeast 506 582 39,000  Level FlightAware ADS-B
07:01PM 41.5191 -76.5663 110° East 506 582 39,000 -300 Level FlightAware ADS-B
07:01PM 41.4936 -76.4740 110° East 503 579 38,700 -1,320 Descending FlightAware ADS-B
07:02PM 41.4622 -76.3612 110° East 507 583 37,500 -2,160 Descending FlightAware ADS-B
07:02PM 41.4374 -76.2718 110° East 513 590 36,200 -2,820 Descending FlightAware ADS-B
07:03PM 41.4079 -76.1664 110° East 518 596 34,400 -3,060 Descending FlightAware ADS-B
07:03PM 41.3807 -76.0698 111° Southeast 518 596 32,800 -3,060 Descending FlightAware ADS-B
07:04PM 41.3516 -75.9668 111° Southeast 515 593 31,000 -2,880 Descending FlightAware ADS-B
07:04PM 41.3268 -75.8791 111° Southeast 506 582 29,700 -2,400 Descending FlightAware ADS-B
07:05PM 41.3012 -75.7889 111° Southeast 496 571 28,600 -2,160 Descending FlightAware ADS-B
07:06PM 41.2749 -75.6989 111° Southeast 481 554 27,400 -2,220 Descending FlightAware ADS-B
07:06PM 41.2491 -75.6179 113° Southeast 471 542 26,300 -2,280 Descending FlightAware ADS-B
07:07PM 41.2220 -75.5364 114° Southeast 462 532 25,100 -2,280 Descending FlightAware ADS-B
07:07PM 41.1959 -75.4587 114° Southeast 453 521 24,000 -1,860 Descending FlightAware ADS-B
07:08PM 41.1665 -75.3713 114° Southeast 441 507 23,100 -960 Descending FlightAware ADS-B
07:08PM 41.1364 -75.2824 114° Southeast 441 507 22,900 -540 Descending FlightAware ADS-B
07:09PM 41.1099 -75.2039 114° Southeast 444 511 22,500 -600 Descending FlightAware ADS-B
07:09PM 41.0844 -75.1285 114° Southeast 448 516 22,300 -480 Descending FlightAware ADS-B
07:10PM 41.0567 -75.0470 114° Southeast 445 512 22,000 -600 Descending FlightAware ADS-B
07:10PM 41.0305 -74.9700 114° Southeast 441 507 21,700 -540 Descending FlightAware ADS-B
07:11PM 41.0097 -74.9083 114° Southeast 438 504 21,500 -540 Descending FlightAware ADS-B
07:11PM 41.0017 -74.8791 110° East 438 504 21,400 -540 Descending FlightAware ADS-B
07:11PM 40.9907 -74.8202 104° East 441 507 21,200 -480 Descending FlightAware ADS-B
07:12PM 40.9812 -74.7394 99° East 440 506 21,000 -540 Descending FlightAware ADS-B
07:12PM 40.9769 -74.6993 98° East 440 506 20,800 -600 Descending FlightAware ADS-B
07:12PM 40.9726 -74.6575 98° East 437 503 20,700 -420 Descending FlightAware ADS-B
07:13PM 40.9685 -74.6182 98° East 436 502 20,600 -600 Descending FlightAware ADS-B
07:13PM 40.9640 -74.5749 98° East 434 499 20,400 -660 Descending FlightAware ADS-B
07:13PM 40.9546 -74.4880 98° East 429 494 20,100 -720 Descending FlightAware ADS-B
07:14PM 40.9453 -74.4037 98° East 415 478 19,600 -840 Descending FlightAware ADS-B
07:15PM 40.9358 -74.3196 98° East 391 450 19,200 -660 Descending FlightAware ADS-B
07:15PM 40.9282 -74.2715 102° East 366 421 19,000 -480 Descending FlightAware ADS-B
07:15PM 40.9261 -74.2645 112° Southeast 363 418 19,000  Level FlightAware ADS-B
07:15PM 40.9176 -74.2394 114° Southeast 370 426 19,000  Level FlightAware ADS-B
07:15PM 40.9109 -74.2213 116° Southeast 351 404 19,000  Level FlightAware ADS-B
07:16PM 40.9037 -74.2018 116° Southeast 348 400 19,000  Level FlightAware ADS-B
07:16PM 40.8819 -74.1429 116° Southeast 351 404 19,000  Level FlightAware ADS-B
07:16PM 40.8780 -74.1321 116° Southeast 352 405 19,000 -900 Level FlightAware ADS-B
07:17PM 40.8571 -74.0751 116° Southeast 347 399 18,500 -1,140 Descending FlightAware ADS-B
07:17PM 40.8354 -74.0165 116° Southeast 338 389 17,900 -1,320 Descending FlightAware ADS-B
07:17PM 40.8342 -74.0132 116° Southeast 336 387 17,800 -1,680 Descending FlightAware ADS-B
07:18PM 40.8130 -73.9578 117° Southeast 334 384 17,000 -1,500 Descending FlightAware ADS-B
07:18PM 40.8118 -73.9547 117° Southeast 333 383 17,000 -1,560 Level FlightAware ADS-B
07:18PM 40.7884 -73.8937 117° Southeast 331 381 16,100 -1,680 Descending FlightAware ADS-B
07:19PM 40.7664 -73.8369 117° Southeast 332 382 15,200 -1,560 Descending FlightAware ADS-B
07:19PM 40.7642 -73.8314 118° Southeast 328 377 15,200 -1,560 Level FlightAware ADS-B
07:19PM 40.7394 -73.7666 117° Southeast 327 376 14,200 -1,620 Descending FlightAware ADS-B
07:20PM 40.7020 -73.7120 132° Southeast 317 365 13,200 -1,500 Descending FlightAware
07:21PM 40.6510 -73.6930 164° South 310 357 12,300 -1,440 Descending FlightAware
07:21PM 40.6289 -73.6849 164° South 309 356 12,000 -1,500 Descending FlightAware ADS-B
07:22PM 40.5837 -73.6683 164° South 304 350 11,100 -2,100 Descending FlightAware ADS-B
07:22PM 40.5465 -73.6544 164° South 301 346 9,900 -2,580 Descending FlightAware ADS-B
07:22PM 40.5235 -73.6460 164° South 300 345 9,200 -2,520 Descending FlightAware ADS-B
07:23PM 40.5076 -73.6411 167° South 298 343 8,700 -2,400 Descending FlightAware ADS-B
07:23PM 40.4976 -73.6406 178° South 294 338 8,400 -2,520 Descending FlightAware ADS-B
07:23PM 40.4916 -73.6418 189° South 292 336 8,200 -2,520 Descending FlightAware ADS-B
07:23PM 40.4816 -73.6456 196° South 287 330 7,900 -2,400 Descending FlightAware ADS-B
07:23PM 40.4730 -73.6501 202° Southwest 286 329 7,600 -2,460 Descending FlightAware ADS-B
07:23PM 40.4549 -73.6609 204° Southwest 286 329 7,000 -2,460 Descending FlightAware ADS-B
07:23PM 40.4346 -73.6738 206° Southwest 288 331 6,300 -2,400 Descending FlightAware ADS-B
07:24PM 40.4132 -73.6874 206° Southwest 291 335 5,600 -2,340 Descending FlightAware ADS-B
07:24PM 40.3907 -73.7016 206° Southwest 293 337 4,900 -2,160 Descending FlightAware ADS-B
07:24PM 40.3670 -73.7166 206° Southwest 293 337 4,300 -1,500 Descending FlightAware ADS-B
07:25PM 40.3368 -73.7358 206° Southwest 290 334 3,800 -1,140 Descending FlightAware ADS-B
07:26PM 40.2960 -73.7810 220° Southwest 271 312 3,000 -1,140 Descending FlightAware
07:26PM 40.2950 -73.7900 262° West 267 307 2,900 -1,200 Descending FlightAware
07:26PM 40.3020 -73.8270 284° West 265 305 2,400 -1,260 Descending FlightAware
07:26PM 40.3180 -73.8450 319° Northwest 248 285 2,000 -840 Descending FlightAware
07:27PM 40.3350 -73.8620 323° Northwest 250 288 1,900 -180 Descending FlightAware
07:27PM 40.3560 -73.8820 324° Northwest 250 288 1,900  Level FlightAware
07:27PM 40.3700 -73.8940 327° Northwest 249 287 1,900  Level FlightAware
07:28PM 40.3830 -73.8980 347° North 238 274 1,900  Level FlightAware
07:28PM 40.4030 -73.9000 356° North 222 255 1,900  Level FlightAware
07:28PM 40.4290 -73.9030 355° North 201 231 1,900  Level FlightAware
07:29PM 40.4430 -73.9040 357° North 187 215 1,900  Level FlightAware
07:29PM 40.4580 -73.8980 17° North 174 200 1,900  Level FlightAware
07:29PM 40.4750 -73.8880 24° Northeast 171 197 1,900  Level FlightAware
07:30PM 40.4900 -73.8770 29° Northeast 172 198 1,900  Level FlightAware
07:30PM 40.5000 -73.8680 34° Northeast 172 198 1,900  Level FlightAware
07:30PM 40.5190 -73.8530 31° Northeast 171 197 1,900  Level FlightAware
07:31PM 40.5340 -73.8420 29° Northeast 170 196 1,900 -360 Level FlightAware
07:31PM 40.5440 -73.8340 31° Northeast 171 197 1,700 -840 Descending FlightAware
07:31PM 40.5580 -73.8230 31° Northeast 164 189 1,400 -720 Descending FlightAware
07:32PM 40.5700 -73.8130 32° Northeast 145 167 1,200 -780 Descending FlightAware
07:32PM 40.5810 -73.8050 29° Northeast 124 143 900 -720 Descending FlightAware
07:32PM 40.5920 -73.7960 32° Northeast 120 138 700 -600 Descending FlightAware
07:33PM 40.6020 -73.7890 28° Northeast 121 139 500 -600 Descending FlightAware
07:33PM 40.6080 -73.7840 32° Northeast 122 140 400 -720 Descending FlightAware
07:33PM 40.6180 -73.7760 31° Northeast 119 137 100 -840 Descending FlightAware
07:34PM 40.6280 -73.7680 31° Northeast 123 142 -300 Descending FlightAware